createdAt,value
2017-10-09T00:01:55.628Z,0
2017-10-09T00:03:57.103Z,0
2017-10-09T00:05:58.510Z,0
2017-10-09T00:07:59.951Z,0
2017-10-09T00:10:02.013Z,0
2017-10-09T00:12:03.434Z,0
2017-10-09T00:14:04.859Z,0
2017-10-09T00:16:06.450Z,0
2017-10-09T00:18:07.863Z,0
2017-10-09T00:20:09.288Z,0
2017-10-09T00:22:10.727Z,0
2017-10-09T00:24:12.223Z,0
2017-10-09T00:26:13.803Z,0
2017-10-09T00:28:15.314Z,0
2017-10-09T00:30:16.781Z,0
2017-10-09T00:32:18.221Z,0
2017-10-09T00:34:19.630Z,0
2017-10-09T00:36:21.048Z,0
2017-10-09T00:38:22.466Z,0
2017-10-09T00:40:23.874Z,0
2017-10-09T00:42:25.285Z,0
2017-10-09T00:44:26.697Z,0
2017-10-09T00:46:28.105Z,0
2017-10-09T00:48:29.517Z,0
2017-10-09T00:50:30.996Z,0
2017-10-09T00:52:32.417Z,0
2017-10-09T00:54:33.829Z,0
2017-10-09T00:56:35.245Z,0
2017-10-09T00:58:36.729Z,0
2017-10-09T01:00:38.147Z,0
2017-10-09T01:02:39.561Z,0
2017-10-09T01:04:40.969Z,0
2017-10-09T01:06:42.379Z,0
2017-10-09T01:08:43.923Z,0
2017-10-09T01:10:45.337Z,0
2017-10-09T01:12:46.757Z,0
2017-10-09T01:14:48.281Z,0
2017-10-09T01:16:49.713Z,0
2017-10-09T01:18:51.132Z,0
2017-10-09T01:20:52.535Z,0
2017-10-09T01:22:53.938Z,0
2017-10-09T01:24:55.348Z,0
2017-10-09T01:26:56.774Z,0
2017-10-09T01:28:58.185Z,0
2017-10-09T01:30:59.595Z,0
2017-10-09T01:33:01.003Z,0
2017-10-09T01:35:02.408Z,0
2017-10-09T01:37:03.828Z,0
2017-10-09T01:39:05.238Z,0
2017-10-09T01:41:06.644Z,0
2017-10-09T01:43:08.065Z,0
2017-10-09T01:45:09.477Z,0
2017-10-09T01:47:10.888Z,0
2017-10-09T01:49:12.443Z,0
2017-10-09T01:51:13.876Z,0
2017-10-09T01:53:15.385Z,0
2017-10-09T01:55:16.774Z,0
2017-10-09T01:57:18.204Z,0
2017-10-09T01:59:19.610Z,0
2017-10-09T02:01:21.026Z,0
2017-10-09T02:03:22.448Z,0
2017-10-09T02:05:23.855Z,0
2017-10-09T02:07:25.268Z,0
2017-10-09T02:09:26.683Z,0
2017-10-09T02:11:28.094Z,0
2017-10-09T02:13:29.501Z,0
2017-10-09T02:15:30.912Z,0
2017-10-09T02:17:32.325Z,0
2017-10-09T02:19:33.733Z,0
2017-10-09T02:21:35.164Z,0
2017-10-09T02:23:36.577Z,0
2017-10-09T02:25:37.982Z,0
2017-10-09T02:27:39.394Z,0
2017-10-09T02:29:40.801Z,0
2017-10-09T02:31:42.264Z,0
2017-10-09T02:33:43.861Z,0
2017-10-09T02:35:45.302Z,0
2017-10-09T02:37:47.390Z,0
2017-10-09T02:39:48.853Z,0
2017-10-09T02:41:50.297Z,0
2017-10-09T02:43:51.733Z,0
2017-10-09T02:45:53.170Z,0
2017-10-09T02:47:54.588Z,0
2017-10-09T02:49:56.015Z,0
2017-10-09T02:51:57.427Z,0
2017-10-09T02:53:58.837Z,0
2017-10-09T02:56:00.251Z,0
2017-10-09T02:58:01.662Z,0
2017-10-09T03:00:03.179Z,0
2017-10-09T03:02:04.632Z,0
2017-10-09T03:04:06.022Z,0
2017-10-09T03:06:07.624Z,0
2017-10-09T03:08:09.073Z,0
2017-10-09T03:10:10.528Z,0
2017-10-09T03:12:12.002Z,0
2017-10-09T03:14:13.421Z,0
2017-10-09T03:16:14.867Z,0
2017-10-09T03:18:57.330Z,0
2017-10-09T03:20:58.732Z,0
2017-10-09T03:23:00.656Z,0
2017-10-09T03:25:02.057Z,0
2017-10-09T03:27:03.469Z,0
2017-10-09T03:29:05.007Z,0
2017-10-09T03:31:06.424Z,0
2017-10-09T03:33:07.826Z,0
2017-10-09T03:35:09.242Z,0
2017-10-09T03:37:10.653Z,0
2017-10-09T03:39:12.063Z,0
2017-10-09T03:41:13.480Z,0
2017-10-09T03:43:14.891Z,0
2017-10-09T03:45:16.332Z,0
2017-10-09T03:47:17.752Z,0
2017-10-09T03:49:19.154Z,0
2017-10-09T03:51:20.681Z,0
2017-10-09T03:53:22.232Z,0
2017-10-09T03:55:23.699Z,0
2017-10-09T03:57:25.116Z,0
2017-10-09T03:59:26.713Z,0
2017-10-09T04:01:28.149Z,0
2017-10-09T04:03:29.561Z,0
2017-10-09T04:05:30.966Z,0
2017-10-09T04:07:32.374Z,0
2017-10-09T04:09:33.865Z,0
2017-10-09T04:11:35.328Z,0
2017-10-09T04:13:36.735Z,0
2017-10-09T04:15:38.144Z,0
2017-10-09T04:17:39.798Z,0
2017-10-09T04:19:41.189Z,0
2017-10-09T04:21:42.845Z,0
2017-10-09T04:23:44.499Z,0
2017-10-09T04:25:46.051Z,0
2017-10-09T04:27:47.467Z,0
2017-10-09T04:29:48.879Z,0
2017-10-09T04:31:50.291Z,0
2017-10-09T04:33:51.697Z,0
2017-10-09T04:35:53.108Z,0
2017-10-09T04:37:54.589Z,0
2017-10-09T04:39:56.038Z,0
2017-10-09T04:41:57.669Z,0
2017-10-09T04:43:59.106Z,0
2017-10-09T04:46:00.679Z,0
2017-10-09T04:48:02.134Z,0
2017-10-09T04:50:03.568Z,0
2017-10-09T04:52:05.008Z,0
2017-10-09T04:54:06.776Z,0
2017-10-09T04:56:08.238Z,0
2017-10-09T04:58:09.692Z,0
2017-10-09T05:00:11.284Z,0
2017-10-09T05:02:12.728Z,0
2017-10-09T05:04:14.285Z,0
2017-10-09T05:06:15.740Z,0
2017-10-09T05:08:17.285Z,0
2017-10-09T05:10:18.822Z,0
2017-10-09T05:12:20.302Z,0
2017-10-09T05:14:21.718Z,0
2017-10-09T05:16:23.128Z,0
2017-10-09T05:18:24.534Z,0
2017-10-09T05:20:25.945Z,0
2017-10-09T05:22:27.493Z,0
2017-10-09T05:24:28.901Z,0
2017-10-09T05:26:30.482Z,4
2017-10-09T05:28:31.891Z,4
2017-10-09T05:30:33.317Z,4
2017-10-09T05:32:34.724Z,4
2017-10-09T05:34:36.129Z,8
2017-10-09T05:36:37.637Z,8
2017-10-09T05:38:39.057Z,16
2017-10-09T05:40:40.464Z,20
2017-10-09T05:42:41.873Z,24
2017-10-09T05:44:43.489Z,28
2017-10-09T05:46:44.905Z,36
2017-10-09T05:48:46.482Z,40
2017-10-09T05:50:47.882Z,52
2017-10-09T05:52:49.295Z,60
2017-10-09T05:54:50.890Z,60
2017-10-09T05:56:52.300Z,56
2017-10-09T05:58:53.712Z,60
2017-10-09T06:00:55.131Z,72
2017-10-09T06:02:56.540Z,88
2017-10-09T06:04:58.086Z,104
2017-10-09T06:06:59.495Z,120
2017-10-09T06:09:00.906Z,144
2017-10-09T06:11:02.314Z,160
2017-10-09T06:13:03.773Z,160
2017-10-09T06:15:05.185Z,160
2017-10-09T06:17:06.598Z,152
2017-10-09T06:19:08.778Z,164
2017-10-09T06:21:10.211Z,180
2017-10-09T06:23:11.619Z,196
2017-10-09T06:25:13.030Z,220
2017-10-09T06:27:14.595Z,228
2017-10-09T06:29:16.026Z,232
2017-10-09T06:31:17.432Z,252
2017-10-09T06:33:18.841Z,292
2017-10-09T06:35:20.251Z,336
2017-10-09T06:37:21.684Z,368
2017-10-09T06:39:23.075Z,424
2017-10-09T06:41:24.503Z,456
2017-10-09T06:43:25.915Z,480
2017-10-09T06:45:27.579Z,488
2017-10-09T06:47:29.065Z,532
2017-10-09T06:49:30.481Z,584
2017-10-09T06:51:31.892Z,628
2017-10-09T06:53:33.309Z,636
2017-10-09T06:55:34.939Z,648
2017-10-09T06:57:36.372Z,636
2017-10-09T06:59:38.055Z,444
2017-10-09T07:01:39.470Z,316
2017-10-09T07:03:40.885Z,248
2017-10-09T07:05:42.382Z,212
2017-10-09T07:07:43.786Z,216
2017-10-09T07:09:45.201Z,220
2017-10-09T07:11:46.618Z,236
2017-10-09T07:13:48.032Z,236
2017-10-09T07:15:49.443Z,216
2017-10-09T07:17:50.878Z,228
2017-10-09T07:19:52.339Z,256
2017-10-09T07:21:53.785Z,288
2017-10-09T07:23:55.254Z,312
2017-10-09T07:25:56.729Z,380
2017-10-09T07:27:58.174Z,428
2017-10-09T07:29:59.623Z,492
2017-10-09T07:32:01.166Z,512
2017-10-09T07:34:02.973Z,488
2017-10-09T07:36:05.073Z,512
2017-10-09T07:38:06.551Z,592
2017-10-09T07:40:08.058Z,640
2017-10-09T07:42:09.529Z,676
2017-10-09T07:44:10.958Z,664
2017-10-09T07:46:12.418Z,664
2017-10-09T07:48:13.862Z,652
2017-10-09T07:50:15.407Z,668
2017-10-09T07:52:16.865Z,668
2017-10-09T07:54:18.331Z,732
2017-10-09T07:56:19.873Z,680
2017-10-09T07:58:21.440Z,636
2017-10-09T08:00:22.868Z,628
2017-10-09T08:02:24.288Z,616
2017-10-09T08:04:25.977Z,612
2017-10-09T08:06:27.433Z,644
2017-10-09T08:08:28.944Z,712
2017-10-09T08:10:30.421Z,700
2017-10-09T08:12:31.960Z,628
2017-10-09T08:14:33.417Z,556
2017-10-09T08:16:34.937Z,516
2017-10-09T08:18:36.400Z,528
2017-10-09T08:20:37.857Z,548
2017-10-09T08:22:39.307Z,596
2017-10-09T08:24:40.872Z,684
2017-10-09T08:26:42.322Z,816
2017-10-09T08:28:43.881Z,960
2017-10-09T08:30:45.438Z,980
2017-10-09T08:32:46.878Z,1040
2017-10-09T08:34:48.411Z,1120
2017-10-09T08:36:49.855Z,1036
2017-10-09T08:38:51.271Z,900
2017-10-09T08:40:52.685Z,780
2017-10-09T08:42:54.102Z,700
2017-10-09T08:44:55.517Z,580
2017-10-09T08:46:56.936Z,516
2017-10-09T08:48:58.432Z,492
2017-10-09T08:50:59.881Z,484
2017-10-09T08:53:01.338Z,512
2017-10-09T08:55:02.755Z,544
2017-10-09T08:57:04.178Z,552
2017-10-09T08:59:05.611Z,584
2017-10-09T09:01:07.021Z,644
2017-10-09T09:03:08.506Z,752
2017-10-09T09:05:09.921Z,796
2017-10-09T09:07:11.336Z,864
2017-10-09T09:09:12.751Z,996
2017-10-09T09:11:14.171Z,1164
2017-10-09T09:13:15.585Z,1264
2017-10-09T09:15:17.004Z,1512
2017-10-09T09:17:18.420Z,1792
2017-10-09T09:19:19.863Z,1980
2017-10-09T09:21:21.290Z,2072
2017-10-09T09:23:22.705Z,2016
2017-10-09T09:25:24.122Z,1900
2017-10-09T09:27:25.897Z,1828
2017-10-09T09:29:27.243Z,1716
2017-10-09T09:31:28.660Z,1536
2017-10-09T09:33:30.074Z,1284
2017-10-09T09:35:31.582Z,1244
2017-10-09T09:37:33.031Z,1288
2017-10-09T09:39:34.645Z,1188
2017-10-09T09:41:36.055Z,1160
2017-10-09T09:43:37.474Z,1116
2017-10-09T09:45:38.891Z,1168
2017-10-09T09:47:40.312Z,1264
2017-10-09T09:49:41.749Z,1332
2017-10-09T09:51:43.160Z,1336
2017-10-09T09:53:44.581Z,1288
2017-10-09T09:55:46.009Z,1188
2017-10-09T09:57:47.491Z,1100
2017-10-09T09:59:48.910Z,1052
2017-10-09T10:01:50.341Z,1028
2017-10-09T10:03:51.760Z,1072
2017-10-09T10:05:53.180Z,1120
2017-10-09T10:07:54.599Z,1084
2017-10-09T10:09:56.017Z,1016
2017-10-09T10:11:57.455Z,880
2017-10-09T10:13:58.871Z,844
2017-10-09T10:16:00.367Z,904
2017-10-09T10:18:01.783Z,1128
2017-10-09T10:20:03.283Z,1332
2017-10-09T10:22:04.734Z,1492
2017-10-09T10:24:06.221Z,1808
2017-10-09T10:26:07.650Z,1704
2017-10-09T10:28:09.076Z,1472
2017-10-09T10:30:10.536Z,1252
2017-10-09T10:32:11.955Z,1136
2017-10-09T10:34:13.382Z,1020
2017-10-09T10:36:14.802Z,968
2017-10-09T10:38:16.230Z,1000
2017-10-09T10:40:17.655Z,1044
2017-10-09T10:42:19.075Z,1020
2017-10-09T10:44:20.495Z,884
2017-10-09T10:46:21.909Z,788
2017-10-09T10:48:23.327Z,776
2017-10-09T10:50:24.742Z,812
2017-10-09T10:52:26.168Z,920
2017-10-09T10:54:27.585Z,1032
2017-10-09T10:56:28.997Z,1064
2017-10-09T10:58:30.422Z,1112
2017-10-09T11:00:31.840Z,1152
2017-10-09T11:02:33.264Z,1128
2017-10-09T11:04:34.688Z,1080
2017-10-09T11:06:36.107Z,1044
2017-10-09T11:08:37.524Z,892
2017-10-09T11:10:38.940Z,960
2017-10-09T11:12:40.360Z,1012
2017-10-09T11:14:41.779Z,964
2017-10-09T11:16:43.189Z,968
2017-10-09T11:18:44.621Z,924
2017-10-09T11:20:46.110Z,840
2017-10-09T11:22:47.606Z,788
2017-10-09T11:24:49.053Z,784
2017-10-09T11:26:50.467Z,848
2017-10-09T11:28:51.884Z,908
2017-10-09T11:30:53.311Z,956
2017-10-09T11:32:54.732Z,996
2017-10-09T11:34:56.152Z,1060
2017-10-09T11:36:57.567Z,1136
2017-10-09T11:38:58.986Z,1156
2017-10-09T11:41:00.404Z,1212
2017-10-09T11:43:01.822Z,1248
2017-10-09T11:45:03.259Z,1360
2017-10-09T11:47:04.674Z,1460
2017-10-09T11:49:06.156Z,1432
2017-10-09T11:51:07.565Z,1256
2017-10-09T11:53:08.988Z,1232
2017-10-09T11:55:10.426Z,1184
2017-10-09T11:57:11.863Z,1248
2017-10-09T11:59:13.296Z,1324
2017-10-09T12:01:14.717Z,1352
2017-10-09T12:03:16.149Z,1336
2017-10-09T12:05:17.574Z,1324
2017-10-09T12:07:18.989Z,1424
2017-10-09T12:09:20.411Z,1452
2017-10-09T12:11:21.830Z,1856
2017-10-09T12:13:24.165Z,1820
2017-10-09T12:15:25.591Z,1548
2017-10-09T12:17:27.222Z,1616
2017-10-09T12:19:28.612Z,2952
2017-10-09T12:21:30.028Z,1640
2017-10-09T12:23:31.448Z,1800
2017-10-09T12:25:32.879Z,1060
2017-10-09T12:27:34.299Z,1020
2017-10-09T12:29:35.876Z,1540
2017-10-09T12:31:37.310Z,1280
2017-10-09T12:33:38.727Z,1948
2017-10-09T12:35:40.179Z,1636
2017-10-09T12:37:41.730Z,2248
2017-10-09T12:39:43.162Z,2332
2017-10-09T12:41:44.595Z,1584
2017-10-09T12:43:46.303Z,2204
2017-10-09T12:45:47.717Z,1580
2017-10-09T12:47:49.144Z,1628
2017-10-09T12:49:50.620Z,1844
2017-10-09T12:51:52.048Z,1480
2017-10-09T12:53:53.476Z,1020
2017-10-09T12:55:54.896Z,896
2017-10-09T12:57:56.314Z,852
2017-10-09T12:59:57.737Z,828
2017-10-09T13:01:59.159Z,848
2017-10-09T13:04:00.582Z,836
2017-10-09T13:06:02.001Z,804
2017-10-09T13:08:03.424Z,768
2017-10-09T13:10:04.865Z,728
2017-10-09T13:12:06.279Z,632
2017-10-09T13:14:07.699Z,676
2017-10-09T13:16:09.146Z,696
2017-10-09T13:18:10.563Z,716
2017-10-09T13:20:11.988Z,768
2017-10-09T13:22:13.405Z,836
2017-10-09T13:24:14.828Z,872
2017-10-09T13:26:16.248Z,1064
2017-10-09T13:28:17.673Z,1056
2017-10-09T13:30:19.376Z,1068
2017-10-09T13:32:20.796Z,952
2017-10-09T13:34:22.215Z,860
2017-10-09T13:36:23.673Z,984
2017-10-09T13:38:25.136Z,760
2017-10-09T13:40:26.551Z,780
2017-10-09T13:42:28.150Z,740
2017-10-09T13:44:29.980Z,752
2017-10-09T13:46:31.419Z,728
2017-10-09T13:48:32.839Z,736
2017-10-09T13:50:34.253Z,692
2017-10-09T13:52:35.693Z,684
2017-10-09T13:54:37.117Z,604
2017-10-09T13:56:38.547Z,596
2017-10-09T13:58:39.971Z,548
2017-10-09T14:00:41.387Z,516
2017-10-09T14:02:42.812Z,520
2017-10-09T14:04:44.223Z,480
2017-10-09T14:06:45.646Z,480
2017-10-09T14:08:47.066Z,428
2017-10-09T14:10:48.501Z,380
2017-10-09T14:12:49.924Z,356
2017-10-09T14:14:51.341Z,328
2017-10-09T14:16:52.763Z,312
2017-10-09T14:18:54.231Z,292
2017-10-09T14:20:55.659Z,284
2017-10-09T14:22:57.152Z,292
2017-10-09T14:24:58.656Z,300
2017-10-09T14:27:00.126Z,308
2017-10-09T14:29:01.586Z,324
2017-10-09T14:31:03.048Z,292
